sensor_id;sensor_type;location;lat;lon;timestamp;pressure;altitude;pressure_sealevel;temperature;humidity
75813;BME280;64450;51.168;16.900;2022-11-20T00:02:12;103283.52;;;-3.00;70.93
75813;BME280;64450;51.168;16.900;2022-11-20T00:05:13;103277.04;;;-3.05;71.04
75813;BME280;64450;51.168;16.900;2022-11-20T00:08:14;103282.10;;;-3.08;71.04
75813;BME280;64450;51.168;16.900;2022-11-20T00:11:24;103267.71;;;-3.13;71.05
75813;BME280;64450;51.168;16.900;2022-11-20T00:14:26;103268.23;;;-3.19;71.06
75813;BME280;64450;51.168;16.900;2022-11-20T00:17:26;103266.13;;;-3.25;70.98
75813;BME280;64450;51.168;16.900;2022-11-20T00:20:27;103266.73;;;-3.29;71.02
75813;BME280;64450;51.168;16.900;2022-11-20T00:23:28;103272.53;;;-3.34;71.22
75813;BME280;64450;51.168;16.900;2022-11-20T00:26:29;103266.14;;;-3.38;71.23
75813;BME280;64450;51.168;16.900;2022-11-20T00:29:30;103274.68;;;-3.42;71.14
75813;BME280;64450;51.168;16.900;2022-11-20T00:32:38;103279.65;;;-3.47;71.39
75813;BME280;64450;51.168;16.900;2022-11-20T00:35:39;103287.35;;;-3.50;72.03
75813;BME280;64450;51.168;16.900;2022-11-20T00:38:40;103290.80;;;-3.51;71.85
75813;BME280;64450;51.168;16.900;2022-11-20T00:41:41;103276.63;;;-3.53;71.95
75813;BME280;64450;51.168;16.900;2022-11-20T00:44:41;103284.41;;;-3.54;71.73
75813;BME280;64450;51.168;16.900;2022-11-20T00:47:42;103282.60;;;-3.55;71.64
75813;BME280;64450;51.168;16.900;2022-11-20T00:50:43;103288.78;;;-3.55;71.68
75813;BME280;64450;51.168;16.900;2022-11-20T00:53:57;103293.14;;;-3.55;71.69
75813;BME280;64450;51.168;16.900;2022-11-20T00:57:02;103294.35;;;-3.50;71.72
75813;BME280;64450;51.168;16.900;2022-11-20T01:00:03;103291.81;;;-3.49;71.73
75813;BME280;64450;51.168;16.900;2022-11-20T01:03:04;103292.84;;;-3.47;71.73
75813;BME280;64450;51.168;16.900;2022-11-20T01:06:09;103293.93;;;-3.43;71.76
75813;BME280;64450;51.168;16.900;2022-11-20T01:09:15;103290.59;;;-3.40;71.70
75813;BME280;64450;51.168;16.900;2022-11-20T01:12:16;103290.78;;;-3.37;71.71
75813;BME280;64450;51.168;16.900;2022-11-20T01:15:17;103290.00;;;-3.36;71.71
75813;BME280;64450;51.168;16.900;2022-11-20T01:18:18;103284.90;;;-3.33;71.64
75813;BME280;64450;51.168;16.900;2022-11-20T01:21:21;103289.36;;;-3.32;71.73
75813;BME280;64450;51.168;16.900;2022-11-20T01:24:22;103289.36;;;-3.32;71.74
75813;BME280;64450;51.168;16.900;2022-11-20T01:27:23;103292.81;;;-3.33;71.89
75813;BME280;64450;51.168;16.900;2022-11-20T01:30:31;103297.00;;;-3.37;72.33
75813;BME280;64450;51.168;16.900;2022-11-20T01:33:32;103288.15;;;-3.37;72.18
75813;BME280;64450;51.168;16.900;2022-11-20T01:36:34;103286.24;;;-3.40;72.20
75813;BME280;64450;51.168;16.900;2022-11-20T01:39:36;103283.59;;;-3.40;72.15
75813;BME280;64450;51.168;16.900;2022-11-20T01:42:36;103276.41;;;-3.43;72.09
75813;BME280;64450;51.168;16.900;2022-11-20T01:46:00;103283.13;;;-3.48;72.53
75813;BME280;64450;51.168;16.900;2022-11-20T01:49:15;103271.55;;;-3.50;72.44
75813;BME280;64450;51.168;16.900;2022-11-20T01:52:23;103274.00;;;-3.53;72.33
75813;BME280;64450;51.168;16.900;2022-11-20T01:55:29;103269.34;;;-3.57;72.39
75813;BME280;64450;51.168;16.900;2022-11-20T01:58:33;103277.15;;;-3.58;72.36
75813;BME280;64450;51.168;16.900;2022-11-20T02:01:36;103275.21;;;-3.61;72.47
75813;BME280;64450;51.168;16.900;2022-11-20T02:04:51;103273.39;;;-3.62;72.44
75813;BME280;64450;51.168;16.900;2022-11-20T02:07:57;103279.56;;;-3.61;72.38
75813;BME280;64450;51.168;16.900;2022-11-20T02:10:58;103274.20;;;-3.63;72.38
75813;BME280;64450;51.168;16.900;2022-11-20T02:13:59;103276.72;;;-3.64;72.33
75813;BME280;64450;51.168;16.900;2022-11-20T02:17:00;103282.63;;;-3.69;72.35
75813;BME280;64450;51.168;16.900;2022-11-20T02:20:11;103281.59;;;-3.71;72.31
75813;BME280;64450;51.168;16.900;2022-11-20T02:23:23;103278.05;;;-3.71;72.14
75813;BME280;64450;51.168;16.900;2022-11-20T02:26:24;103274.20;;;-3.76;72.14
75813;BME280;64450;51.168;16.900;2022-11-20T02:29:48;103267.03;;;-3.79;72.18
75813;BME280;64450;51.168;16.900;2022-11-20T02:32:49;103278.25;;;-3.81;72.16
75813;BME280;64450;51.168;16.900;2022-11-20T02:35:50;103279.88;;;-3.83;72.14
75813;BME280;64450;51.168;16.900;2022-11-20T02:38:51;103287.57;;;-3.86;72.24
75813;BME280;64450;51.168;16.900;2022-11-20T02:41:53;103284.75;;;-3.89;72.23
75813;BME280;64450;51.168;16.900;2022-11-20T02:44:59;103277.54;;;-3.92;72.17
75813;BME280;64450;51.168;16.900;2022-11-20T02:47:59;103280.99;;;-3.93;72.15
75813;BME280;64450;51.168;16.900;2022-11-20T02:51:00;103276.41;;;-3.96;72.17
75813;BME280;64450;51.168;16.900;2022-11-20T02:54:02;103277.23;;;-3.97;72.11
75813;BME280;64450;51.168;16.900;2022-11-20T02:57:03;103275.23;;;-4.01;72.27
75813;BME280;64450;51.168;16.900;2022-11-20T03:00:04;103274.18;;;-4.03;72.19
75813;BME280;64450;51.168;16.900;2022-11-20T03:03:07;103272.28;;;-4.05;72.19
75813;BME280;64450;51.168;16.900;2022-11-20T03:06:16;103280.88;;;-4.08;72.40
75813;BME280;64450;51.168;16.900;2022-11-20T03:09:17;103283.31;;;-4.11;72.48
75813;BME280;64450;51.168;16.900;2022-11-20T03:12:18;103283.09;;;-4.14;72.42
75813;BME280;64450;51.168;16.900;2022-11-20T03:15:19;103281.27;;;-4.15;72.34
75813;BME280;64450;51.168;16.900;2022-11-20T03:18:20;103281.05;;;-4.18;72.22
75813;BME280;64450;51.168;16.900;2022-11-20T03:21:20;103280.05;;;-4.20;72.07
75813;BME280;64450;51.168;16.900;2022-11-20T03:24:21;103278.02;;;-4.24;72.07
75813;BME280;64450;51.168;16.900;2022-11-20T03:27:34;103283.05;;;-4.27;72.18
75813;BME280;64450;51.168;16.900;2022-11-20T03:30:35;103285.50;;;-4.30;72.50
75813;BME280;64450;51.168;16.900;2022-11-20T03:33:36;103274.74;;;-4.33;72.53
75813;BME280;64450;51.168;16.900;2022-11-20T03:36:38;103276.47;;;-4.34;72.46
75813;BME280;64450;51.168;16.900;2022-11-20T03:39:39;103279.92;;;-4.35;72.49
75813;BME280;64450;51.168;16.900;2022-11-20T03:42:40;103274.56;;;-4.36;72.51
75813;BME280;64450;51.168;16.900;2022-11-20T03:45:47;103283.05;;;-4.40;72.53
75813;BME280;64450;51.168;16.900;2022-11-20T03:48:53;103279.27;;;-4.44;72.58
75813;BME280;64450;51.168;16.900;2022-11-20T03:51:54;103276.54;;;-4.45;72.75
75813;BME280;64450;51.168;16.900;2022-11-20T03:54:54;103279.90;;;-4.48;72.71
75813;BME280;64450;51.168;16.900;2022-11-20T03:57:55;103287.67;;;-4.50;72.65
75813;BME280;64450;51.168;16.900;2022-11-20T04:00:56;103284.03;;;-4.52;72.69
75813;BME280;64450;51.168;16.900;2022-11-20T04:03:57;103281.98;;;-4.56;72.70
75813;BME280;64450;51.168;16.900;2022-11-20T04:06:58;103285.44;;;-4.57;72.87
75813;BME280;64450;51.168;16.900;2022-11-20T04:10:08;103288.74;;;-4.59;72.95
75813;BME280;64450;51.168;16.900;2022-11-20T04:13:09;103292.28;;;-4.59;73.00
75813;BME280;64450;51.168;16.900;2022-11-20T04:16:10;103279.03;;;-4.60;72.92
75813;BME280;64450;51.168;16.900;2022-11-20T04:19:13;103281.75;;;-4.59;72.92
75813;BME280;64450;51.168;16.900;2022-11-20T04:22:15;103285.11;;;-4.61;72.90
75813;BME280;64450;51.168;16.900;2022-11-20T04:25:16;103280.65;;;-4.62;72.75
75813;BME280;64450;51.168;16.900;2022-11-20T04:28:16;103291.86;;;-4.65;72.71
75813;BME280;64450;51.168;16.900;2022-11-20T04:31:27;103267.86;;;-4.69;72.65
75813;BME280;64450;51.168;16.900;2022-11-20T04:34:28;103274.06;;;-4.69;72.55
75813;BME280;64450;51.168;16.900;2022-11-20T04:37:29;103270.30;;;-4.72;72.48
75813;BME280;64450;51.168;16.900;2022-11-20T04:40:30;103277.97;;;-4.76;72.75
75813;BME280;64450;51.168;16.900;2022-11-20T04:43:32;103273.41;;;-4.78;72.72
75813;BME280;64450;51.168;16.900;2022-11-20T04:46:38;103272.50;;;-4.79;72.70
75813;BME280;64450;51.168;16.900;2022-11-20T04:49:40;103272.27;;;-4.82;72.80
75813;BME280;64450;51.168;16.900;2022-11-20T04:52:45;103269.55;;;-4.83;73.23
75813;BME280;64450;51.168;16.900;2022-11-20T04:55:46;103268.84;;;-4.81;73.33
75813;BME280;64450;51.168;16.900;2022-11-20T04:58:47;103265.10;;;-4.84;73.71
75813;BME280;64450;51.168;16.900;2022-11-20T05:01:48;103261.65;;;-4.83;73.70
75813;BME280;64450;51.168;16.900;2022-11-20T05:04:48;103268.73;;;-4.82;74.04
75813;BME280;64450;51.168;16.900;2022-11-20T05:07:49;103265.28;;;-4.81;73.88
75813;BME280;64450;51.168;16.900;2022-11-20T05:10:50;103259.22;;;-4.80;73.65
75813;BME280;64450;51.168;16.900;2022-11-20T05:14:01;103253.19;;;-4.79;73.52
75813;BME280;64450;51.168;16.900;2022-11-20T05:17:01;103246.07;;;-4.80;73.36
75813;BME280;64450;51.168;16.900;2022-11-20T05:20:03;103245.14;;;-4.81;73.17
75813;BME280;64450;51.168;16.900;2022-11-20T05:23:03;103240.70;;;-4.82;73.01
75813;BME280;64450;51.168;16.900;2022-11-20T05:26:06;103243.73;;;-4.89;72.99
75813;BME280;64450;51.168;16.900;2022-11-20T05:29:10;103243.49;;;-4.92;73.33
75813;BME280;64450;51.168;16.900;2022-11-20T05:32:11;103239.95;;;-4.92;73.29
75813;BME280;64450;51.168;16.900;2022-11-20T05:35:17;103240.54;;;-4.96;73.43
75813;BME280;64450;51.168;16.900;2022-11-20T05:38:17;103237.82;;;-4.98;73.29
75813;BME280;64450;51.168;16.900;2022-11-20T05:41:19;103246.42;;;-5.01;73.26
75813;BME280;64450;51.168;16.900;2022-11-20T05:44:21;103245.47;;;-5.01;73.20
75813;BME280;64450;51.168;16.900;2022-11-20T05:47:21;103245.27;;;-5.04;73.04
75813;BME280;64450;51.168;16.900;2022-11-20T05:50:22;103234.66;;;-5.06;72.85
75813;BME280;64450;51.168;16.900;2022-11-20T05:53:23;103226.63;;;-5.07;72.76
75813;BME280;64450;51.168;16.900;2022-11-20T05:56:32;103222.90;;;-5.11;72.75
75813;BME280;64450;51.168;16.900;2022-11-20T05:59:33;103226.30;;;-5.12;72.71
75813;BME280;64450;51.168;16.900;2022-11-20T06:02:35;103218.23;;;-5.15;72.77
75813;BME280;64450;51.168;16.900;2022-11-20T06:05:36;103223.48;;;-5.15;72.88
75813;BME280;64450;51.168;16.900;2022-11-20T06:08:37;103223.38;;;-5.16;72.94
75813;BME280;64450;51.168;16.900;2022-11-20T06:11:38;103222.44;;;-5.17;72.99
75813;BME280;64450;51.168;16.900;2022-11-20T06:14:39;103226.78;;;-5.17;73.09
75813;BME280;64450;51.168;16.900;2022-11-20T06:17:52;103222.34;;;-5.18;73.20
75813;BME280;64450;51.168;16.900;2022-11-20T06:21:00;103225.88;;;-5.18;73.36
75813;BME280;64450;51.168;16.900;2022-11-20T06:24:01;103225.88;;;-5.18;73.41
75813;BME280;64450;51.168;16.900;2022-11-20T06:27:02;103227.83;;;-5.15;73.25
75813;BME280;64450;51.168;16.900;2022-11-20T06:30:04;103226.02;;;-5.16;73.20
75813;BME280;64450;51.168;16.900;2022-11-20T06:33:10;103226.11;;;-5.15;73.17
75813;BME280;64450;51.168;16.900;2022-11-20T06:36:13;103224.50;;;-5.13;73.11
75813;BME280;64450;51.168;16.900;2022-11-20T06:39:14;103217.51;;;-5.12;72.96
75813;BME280;64450;51.168;16.900;2022-11-20T06:42:15;103217.64;;;-5.11;72.67
75813;BME280;64450;51.168;16.900;2022-11-20T06:45:16;103217.51;;;-5.12;72.99
75813;BME280;64450;51.168;16.900;2022-11-20T06:48:17;103218.66;;;-5.09;72.98
75813;BME280;64450;51.168;16.900;2022-11-20T06:51:18;103217.03;;;-5.07;73.11
75813;BME280;64450;51.168;16.900;2022-11-20T06:54:26;103214.63;;;-5.04;73.48
75813;BME280;64450;51.168;16.900;2022-11-20T06:57:27;103218.27;;;-5.02;73.76
75813;BME280;64450;51.168;16.900;2022-11-20T07:00:27;103217.67;;;-4.97;73.92
75813;BME280;64450;51.168;16.900;2022-11-20T07:03:28;103223.37;;;-4.91;73.75
75813;BME280;64450;51.168;16.900;2022-11-20T07:06:29;103225.63;;;-4.84;73.79
75813;BME280;64450;51.168;16.900;2022-11-20T07:09:30;103225.15;;;-4.79;73.92
75813;BME280;64450;51.168;16.900;2022-11-20T07:12:31;103215.95;;;-4.72;73.83
75813;BME280;64450;51.168;16.900;2022-11-20T07:15:42;103209.38;;;-4.65;73.88
75813;BME280;64450;51.168;16.900;2022-11-20T07:18:43;103215.28;;;-4.56;73.89
75813;BME280;64450;51.168;16.900;2022-11-20T07:21:44;103213.97;;;-4.50;73.95
75813;BME280;64450;51.168;16.900;2022-11-20T07:24:44;103207.52;;;-4.41;73.89
75813;BME280;64450;51.168;16.900;2022-11-20T07:27:45;103210.64;;;-4.34;74.38
75813;BME280;64450;51.168;16.900;2022-11-20T07:30:53;103220.30;;;-4.21;74.11
75813;BME280;64450;51.168;16.900;2022-11-20T07:33:54;103219.27;;;-3.97;74.49
75813;BME280;64450;51.168;16.900;2022-11-20T07:36:59;103217.23;;;-3.61;73.75
75813;BME280;64450;51.168;16.900;2022-11-20T07:40:00;103205.40;;;-3.39;73.11
75813;BME280;64450;51.168;16.900;2022-11-20T07:43:01;103192.81;;;-3.30;72.72
75813;BME280;64450;51.168;16.900;2022-11-20T07:46:01;103185.48;;;-3.21;72.36
75813;BME280;64450;51.168;16.900;2022-11-20T07:49:04;103185.94;;;-3.13;72.18
75813;BME280;64450;51.168;16.900;2022-11-20T07:52:05;103188.04;;;-3.08;72.11
75813;BME280;64450;51.168;16.900;2022-11-20T07:55:07;103191.80;;;-3.04;72.00
75813;BME280;64450;51.168;16.900;2022-11-20T07:58:15;103191.80;;;-3.04;72.02
75813;BME280;64450;51.168;16.900;2022-11-20T08:01:16;103194.73;;;-3.00;72.36
75813;BME280;64450;51.168;16.900;2022-11-20T08:04:17;103196.08;;;-2.92;72.19
75813;BME280;64450;51.168;16.900;2022-11-20T08:07:17;103189.36;;;-2.86;72.31
75813;BME280;64450;51.168;16.900;2022-11-20T08:10:18;103186.09;;;-2.82;72.52
75813;BME280;64450;51.168;16.900;2022-11-20T08:13:20;103190.09;;;-2.74;72.61
75813;BME280;64450;51.168;16.900;2022-11-20T08:16:33;103171.19;;;-2.67;72.71
75813;BME280;64450;51.168;16.900;2022-11-20T08:19:38;103179.55;;;-2.59;73.02
75813;BME280;64450;51.168;16.900;2022-11-20T08:22:39;103178.56;;;-2.47;72.94
75813;BME280;64450;51.168;16.900;2022-11-20T08:25:40;103172.90;;;-2.38;72.72
75813;BME280;64450;51.168;16.900;2022-11-20T08:28:41;103175.26;;;-2.28;72.76
75813;BME280;64450;51.168;16.900;2022-11-20T08:31:41;103161.68;;;-2.19;72.35
75813;BME280;64450;51.168;16.900;2022-11-20T08:34:43;103161.55;;;-2.06;71.92
75813;BME280;64450;51.168;16.900;2022-11-20T08:37:47;103159.45;;;-1.97;70.75
75813;BME280;64450;51.168;16.900;2022-11-20T08:41:01;103153.03;;;-1.86;71.07
75813;BME280;64450;51.168;16.900;2022-11-20T08:44:14;103148.27;;;-1.76;70.29
75813;BME280;64450;51.168;16.900;2022-11-20T08:47:15;103151.43;;;-1.67;69.61
75813;BME280;64450;51.168;16.900;2022-11-20T08:50:21;103148.55;;;-1.55;69.69
75813;BME280;64450;51.168;16.900;2022-11-20T08:53:22;103144.75;;;-1.44;69.52
75813;BME280;64450;51.168;16.900;2022-11-20T08:56:22;103147.91;;;-1.35;68.94
75813;BME280;64450;51.168;16.900;2022-11-20T08:59:23;103136.74;;;-1.29;68.02
75813;BME280;64450;51.168;16.900;2022-11-20T09:02:24;103138.41;;;-1.15;67.68
75813;BME280;64450;51.168;16.900;2022-11-20T09:05:25;103145.83;;;-1.08;67.62
75813;BME280;64450;51.168;16.900;2022-11-20T09:08:28;103127.70;;;-1.00;66.97
75813;BME280;64450;51.168;16.900;2022-11-20T09:11:37;103130.90;;;-0.90;67.55
75813;BME280;64450;51.168;16.900;2022-11-20T09:14:38;103124.34;;;-0.80;68.00
75813;BME280;64450;51.168;16.900;2022-11-20T09:17:38;103125.66;;;-0.72;68.10
75813;BME280;64450;51.168;16.900;2022-11-20T09:20:39;103123.39;;;-0.64;67.40
75813;BME280;64450;51.168;16.900;2022-11-20T09:23:40;103120.98;;;-0.60;66.39
75813;BME280;64450;51.168;16.900;2022-11-20T09:26:41;103121.40;;;-0.52;66.73
75813;BME280;64450;51.168;16.900;2022-11-20T09:29:42;103122.59;;;-0.45;66.05
75813;BME280;64450;51.168;16.900;2022-11-20T09:32:53;103110.44;;;-0.42;64.90
75813;BME280;64450;51.168;16.900;2022-11-20T09:35:54;103114.52;;;-0.31;65.39
75813;BME280;64450;51.168;16.900;2022-11-20T09:38:54;103112.16;;;-0.24;65.21
75813;BME280;64450;51.168;16.900;2022-11-20T09:42:05;103103.66;;;-0.17;64.96
75813;BME280;64450;51.168;16.900;2022-11-20T09:48:36;103098.13;;;-0.04;64.03
75813;BME280;64450;51.168;16.900;2022-11-20T09:55:01;103084.09;;;0.16;63.53
75813;BME280;64450;51.168;16.900;2022-11-20T09:58:06;103088.69;;;0.20;63.67
75813;BME280;64450;51.168;16.900;2022-11-20T10:01:18;103089.80;;;0.25;63.73
75813;BME280;64450;51.168;16.900;2022-11-20T10:04:20;103076.54;;;0.25;61.93
75813;BME280;64450;51.168;16.900;2022-11-20T10:07:27;103081.45;;;0.36;62.34
75813;BME280;64450;51.168;16.900;2022-11-20T10:10:44;103070.47;;;0.47;62.81
75813;BME280;64450;51.168;16.900;2022-11-20T10:17:17;103049.63;;;0.55;62.20
75813;BME280;64450;51.168;16.900;2022-11-20T10:30:06;103025.89;;;0.79;62.44
75813;BME280;64450;51.168;16.900;2022-11-20T10:33:17;103031.77;;;0.72;60.97
75813;BME280;64450;51.168;16.900;2022-11-20T10:39:38;103025.45;;;0.89;60.93
75813;BME280;64450;51.168;16.900;2022-11-20T10:42:47;103018.48;;;0.91;60.07
75813;BME280;64450;51.168;16.900;2022-11-20T10:49:14;103021.79;;;1.07;60.37
75813;BME280;64450;51.168;16.900;2022-11-20T10:55:39;103015.49;;;1.25;60.27
75813;BME280;64450;51.168;16.900;2022-11-20T11:01:54;102977.72;;;1.33;55.71
75813;BME280;64450;51.168;16.900;2022-11-20T11:04:55;102969.99;;;1.39;55.19
75813;BME280;64450;51.168;16.900;2022-11-20T11:08:03;102977.60;;;1.52;56.67
75813;BME280;64450;51.168;16.900;2022-11-20T11:14:17;102975.45;;;1.64;56.70
75813;BME280;64450;51.168;16.900;2022-11-20T11:17:30;102972.66;;;1.61;55.99
75813;BME280;64450;51.168;16.900;2022-11-20T11:20:32;102969.57;;;1.73;55.90
75813;BME280;64450;51.168;16.900;2022-11-20T11:23:35;102961.09;;;1.83;57.05
75813;BME280;64450;51.168;16.900;2022-11-20T11:26:37;102947.20;;;1.90;55.62
75813;BME280;64450;51.168;16.900;2022-11-20T11:29:38;102941.99;;;1.93;54.90
75813;BME280;64450;51.168;16.900;2022-11-20T11:32:49;102942.34;;;2.02;56.25
75813;BME280;64450;51.168;16.900;2022-11-20T11:35:53;102941.54;;;2.05;55.15
75813;BME280;64450;51.168;16.900;2022-11-20T11:38:57;102937.24;;;2.08;54.09
75813;BME280;64450;51.168;16.900;2022-11-20T11:42:00;102929.53;;;2.16;55.18
75813;BME280;64450;51.168;16.900;2022-11-20T11:45:01;102928.03;;;2.23;54.94
75813;BME280;64450;51.168;16.900;2022-11-20T11:48:10;102927.56;;;2.34;55.38
75813;BME280;64450;51.168;16.900;2022-11-20T11:51:11;102922.45;;;2.41;54.59
75813;BME280;64450;51.168;16.900;2022-11-20T11:54:23;102929.78;;;2.48;54.29
75813;BME280;64450;51.168;16.900;2022-11-20T12:00:54;102914.75;;;2.48;53.67
75813;BME280;64450;51.168;16.900;2022-11-20T12:07:15;102908.48;;;2.73;54.36
75813;BME280;64450;51.168;16.900;2022-11-20T12:13:44;102909.13;;;2.92;54.04
75813;BME280;64450;51.168;16.900;2022-11-20T12:16:46;102903.25;;;3.02;53.64
75813;BME280;64450;51.168;16.900;2022-11-20T12:19:47;102898.42;;;3.17;53.68
75813;BME280;64450;51.168;16.900;2022-11-20T12:26:14;102896.79;;;3.51;53.22
75813;BME280;64450;51.168;16.900;2022-11-20T12:36:01;102888.39;;;4.29;52.01
75813;BME280;64450;51.168;16.900;2022-11-20T12:58:44;102840.36;;;6.75;44.78
75813;BME280;64450;51.168;16.900;2022-11-20T13:11:32;102810.67;;;7.93;43.92
75813;BME280;64450;51.168;16.900;2022-11-20T13:14:45;102803.09;;;8.36;43.00
75813;BME280;64450;51.168;16.900;2022-11-20T13:17:54;102804.53;;;9.02;42.69
75813;BME280;64450;51.168;16.900;2022-11-20T13:20:57;102795.88;;;9.67;40.83
75813;BME280;64450;51.168;16.900;2022-11-20T13:24:05;102781.68;;;10.59;38.43
75813;BME280;64450;51.168;16.900;2022-11-20T13:30:25;102757.60;;;12.35;33.14
75813;BME280;64450;51.168;16.900;2022-11-20T13:33:30;102761.73;;;12.77;33.34
75813;BME280;64450;51.168;16.900;2022-11-20T13:36:32;102759.44;;;13.25;32.61
75813;BME280;64450;51.168;16.900;2022-11-20T13:39:37;102756.34;;;13.54;33.12
75813;BME280;64450;51.168;16.900;2022-11-20T13:42:45;102752.33;;;13.84;32.55
75813;BME280;64450;51.168;16.900;2022-11-20T13:45:59;102746.63;;;14.04;32.15
75813;BME280;64450;51.168;16.900;2022-11-20T13:49:08;102738.35;;;14.12;30.93
75813;BME280;64450;51.168;16.900;2022-11-20T13:55:35;102738.94;;;14.32;31.47
75813;BME280;64450;51.168;16.900;2022-11-20T14:01:48;102735.37;;;14.29;30.94
75813;BME280;64450;51.168;16.900;2022-11-20T14:04:51;102737.05;;;14.37;30.52
75813;BME280;64450;51.168;16.900;2022-11-20T14:07:54;102738.26;;;14.20;30.64
75813;BME280;64450;51.168;16.900;2022-11-20T14:14:29;102727.98;;;13.11;31.05
75813;BME280;64450;51.168;16.900;2022-11-20T14:17:33;102730.32;;;12.61;32.19
75813;BME280;64450;51.168;16.900;2022-11-20T14:20:37;102746.45;;;11.35;34.44
75813;BME280;64450;51.168;16.900;2022-11-20T14:23:39;102744.85;;;10.30;36.07
75813;BME280;64450;51.168;16.900;2022-11-20T14:26:44;102752.72;;;9.45;37.41
75813;BME280;64450;51.168;16.900;2022-11-20T14:29:50;102757.69;;;8.71;38.89
75813;BME280;64450;51.168;16.900;2022-11-20T14:32:52;102761.50;;;8.00;40.29
75813;BME280;64450;51.168;16.900;2022-11-20T14:35:57;102763.46;;;7.36;41.57
75813;BME280;64450;51.168;16.900;2022-11-20T14:38:58;102769.80;;;6.79;42.85
75813;BME280;64450;51.168;16.900;2022-11-20T14:42:00;102775.20;;;6.26;44.13
75813;BME280;64450;51.168;16.900;2022-11-20T14:45:02;102773.37;;;5.76;45.39
75813;BME280;64450;51.168;16.900;2022-11-20T14:48:03;102782.24;;;5.32;46.46
75813;BME280;64450;51.168;16.900;2022-11-20T14:51:04;102777.80;;;4.91;47.93
75813;BME280;64450;51.168;16.900;2022-11-20T14:54:11;102782.16;;;4.52;48.86
75813;BME280;64450;51.168;16.900;2022-11-20T15:00:27;102782.98;;;3.80;50.31
75813;BME280;64450;51.168;16.900;2022-11-20T15:03:37;102790.97;;;3.48;51.15
75813;BME280;64450;51.168;16.900;2022-11-20T15:10:01;102798.11;;;2.91;52.82
75813;BME280;64450;51.168;16.900;2022-11-20T15:13:13;102798.06;;;2.62;53.72
75813;BME280;64450;51.168;16.900;2022-11-20T15:16:20;102807.80;;;2.34;54.67
75813;BME280;64450;51.168;16.900;2022-11-20T15:19:24;102811.44;;;2.11;55.34
75813;BME280;64450;51.168;16.900;2022-11-20T15:22:25;102812.41;;;1.89;55.98
75813;BME280;64450;51.168;16.900;2022-11-20T15:25:34;102812.48;;;1.67;56.66
75813;BME280;64450;51.168;16.900;2022-11-20T15:28:41;102812.72;;;1.49;57.14
75813;BME280;64450;51.168;16.900;2022-11-20T15:31:42;102820.10;;;1.34;57.86
75813;BME280;64450;51.168;16.900;2022-11-20T15:34:45;102828.34;;;1.17;58.43
75813;BME280;64450;51.168;16.900;2022-11-20T15:37:46;102835.70;;;1.02;60.11
75813;BME280;64450;51.168;16.900;2022-11-20T15:40:56;102840.39;;;0.87;60.82
75813;BME280;64450;51.168;16.900;2022-11-20T15:43:56;102826.73;;;0.77;59.75
75813;BME280;64450;51.168;16.900;2022-11-20T15:46:57;102838.48;;;0.62;62.22
75813;BME280;64450;51.168;16.900;2022-11-20T15:49:58;102840.58;;;0.48;63.20
75813;BME280;64450;51.168;16.900;2022-11-20T15:52:59;102845.48;;;0.39;63.54
75813;BME280;64450;51.168;16.900;2022-11-20T15:56:01;102842.48;;;0.31;63.67
75813;BME280;64450;51.168;16.900;2022-11-20T15:59:02;102846.44;;;0.20;64.45
75813;BME280;64450;51.168;16.900;2022-11-20T16:02:12;102842.76;;;0.16;63.69
75813;BME280;64450;51.168;16.900;2022-11-20T16:05:14;102840.80;;;0.12;63.80
75813;BME280;64450;51.168;16.900;2022-11-20T16:08:16;102846.61;;;0.04;64.35
75813;BME280;64450;51.168;16.900;2022-11-20T16:11:18;102835.68;;;-0.04;64.79
75813;BME280;64450;51.168;16.900;2022-11-20T16:14:19;102832.88;;;-0.07;63.87
75813;BME280;64450;51.168;16.900;2022-11-20T16:17:32;102836.05;;;-0.16;65.28
75813;BME280;64450;51.168;16.900;2022-11-20T16:20:46;102837.50;;;-0.22;65.96
75813;BME280;64450;51.168;16.900;2022-11-20T16:23:47;102835.53;;;-0.27;66.38
75813;BME280;64450;51.168;16.900;2022-11-20T16:26:48;102845.05;;;-0.32;67.01
75813;BME280;64450;51.168;16.900;2022-11-20T16:29:49;102840.56;;;-0.33;67.05
75813;BME280;64450;51.168;16.900;2022-11-20T16:32:54;102834.30;;;-0.35;67.16
75813;BME280;64450;51.168;16.900;2022-11-20T16:35:55;102835.84;;;-0.40;67.68
75813;BME280;64450;51.168;16.900;2022-11-20T16:38:58;102837.65;;;-0.39;67.69
75813;BME280;64450;51.168;16.900;2022-11-20T16:42:04;102833.13;;;-0.41;68.15
75813;BME280;64450;51.168;16.900;2022-11-20T16:45:05;102835.84;;;-0.40;68.17
75813;BME280;64450;51.168;16.900;2022-11-20T16:48:16;102831.23;;;-0.44;68.48
75813;BME280;64450;51.168;16.900;2022-11-20T16:51:17;102834.94;;;-0.40;68.63
75813;BME280;64450;51.168;16.900;2022-11-20T16:54:17;102835.00;;;-0.39;68.73
75813;BME280;64450;51.168;16.900;2022-11-20T16:57:18;102838.34;;;-0.43;69.07
75813;BME280;64450;51.168;16.900;2022-11-20T17:00:19;102839.75;;;-0.51;69.62
75813;BME280;64450;51.168;16.900;2022-11-20T17:03:20;102835.42;;;-0.49;69.45
75813;BME280;64450;51.168;16.900;2022-11-20T17:06:23;102844.27;;;-0.48;69.24
75813;BME280;64450;51.168;16.900;2022-11-20T17:09:33;102847.48;;;-0.56;69.96
75813;BME280;64450;51.168;16.900;2022-11-20T17:12:34;102848.59;;;-0.50;69.47
75813;BME280;64450;51.168;16.900;2022-11-20T17:15:34;102851.04;;;-0.55;70.04
75813;BME280;64450;51.168;16.900;2022-11-20T17:18:35;102849.91;;;-0.60;70.38
75813;BME280;64450;51.168;16.900;2022-11-20T17:21:37;102848.57;;;-0.70;70.80
75813;BME280;64450;51.168;16.900;2022-11-20T17:24:39;102857.30;;;-0.72;70.98
75813;BME280;64450;51.168;16.900;2022-11-20T18:12:38;102836.48;;;-1.55;70.45
75813;BME280;64450;51.168;16.900;2022-11-20T18:15:38;102836.48;;;-1.55;70.30
75813;BME280;64450;51.168;16.900;2022-11-20T18:18:39;102830.42;;;-1.53;70.37
75813;BME280;64450;51.168;16.900;2022-11-20T18:21:40;102831.43;;;-1.51;71.14